Terminal Aerodrome Forecast
Issued by NWS Shreveport, LA

Home | Current Version | Previous Version | Text Only | Print | Product List | Glossary On
Versions: 1 2 3 4 5 6 7 8 9 10 11 12 13 14 15 16 17 18
858
FTUS44 KSHV 250540
TAFTXK
TAF
KTXK 250540Z 2506/2606 VRB03KT P6SM SCT250
     FM251200 VRB04KT P6SM SCT100 BKN250
     FM251800 32008KT P6SM BKN080 OVC250
     FM252100 33010KT P6SM VCSH SCT050 BKN080 OVC250
     FM260000 33010KT 5SM -SHRA BR OVC025=

USA.gov is the U.S. government's official web portal to all federal, state and local government web resources and services.